Time;durP1;ratioP1;P1;durP2;ratioP2;P2;SDS_P1;SDS_P2;PMS_P1;PMS_P2;Temp;Humidity;BMP_temperature;BMP_pressure;BME280_temperature;BME280_humidity;BME280_pressure;Samples;Min_cycle;Max_cycle;Signal;HPM_P1;HPM_P2
2023/04/26 00:00:42;;;;;;;11.23;2.83;;;4.50;99.90;;;;;;4856130;29;20092;-89
2023/04/26 00:03:08;;;;;;;6.78;2.20;;;4.30;99.90;;;;;;4842600;29;20077;-89
2023/04/26 00:05:36;;;;;;;12.43;2.80;;;4.40;99.90;;;;;;4854573;29;20052;-89
2023/04/26 00:08:03;;;;;;;13.60;3.08;;;4.20;99.90;;;;;;4860231;29;20541;-89
2023/04/26 00:10:30;;;;;;;13.02;2.75;;;3.40;99.90;;;;;;4859209;29;20057;-88
2023/04/26 00:12:56;;;;;;;12.80;2.92;;;2.50;99.90;;;;;;4859561;29;20052;-90
2023/04/26 00:15:21;;;;;;;14.18;3.03;;;4.40;99.90;;;;;;4856530;29;20029;-89
2023/04/26 00:17:48;;;;;;;14.90;3.10;;;3.30;99.90;;;;;;4851722;29;20112;-90
2023/04/26 00:20:14;;;;;;;12.60;2.95;;;4.20;99.90;;;;;;4846997;29;20080;-90
2023/04/26 00:22:40;;;;;;;13.55;3.55;;;4.20;99.90;;;;;;4860083;29;20097;-90
2023/04/26 00:25:06;;;;;;;11.55;2.60;;;4.10;99.90;;;;;;4860209;29;20073;-90
2023/04/26 00:27:31;;;;;;;12.18;3.03;;;3.40;99.90;;;;;;4855284;29;20124;-90
2023/04/26 00:29:57;;;;;;;13.52;2.88;;;3.10;99.90;;;;;;4857133;29;20495;-91
2023/04/26 00:32:23;;;;;;;13.52;2.85;;;3.60;99.90;;;;;;4856757;29;20033;-91
2023/04/26 00:34:48;;;;;;;10.75;2.95;;;3.60;99.90;;;;;;4859148;29;20052;-90
2023/04/26 00:37:14;;;;;;;12.57;2.55;;;4.70;99.90;;;;;;4859738;29;20137;-89
2023/04/26 00:39:40;;;;;;;12.77;2.65;;;3.80;99.90;;;;;;4846976;29;20563;-90
2023/04/26 00:42:06;;;;;;;10.40;2.67;;;4.10;99.90;;;;;;4856463;29;20116;-89
2023/04/26 00:44:31;;;;;;;14.65;2.95;;;3.90;99.90;;;;;;4859010;29;20025;-91
2023/04/26 00:46:57;;;;;;;13.07;2.45;;;4.00;99.90;;;;;;4850486;29;20046;-90
2023/04/26 00:49:25;;;;;;;17.67;2.92;;;4.30;99.90;;;;;;4855028;29;20041;-89
2023/04/26 00:51:51;;;;;;;12.05;3.00;;;3.90;99.90;;;;;;4858850;29;20049;-90
2023/04/26 00:54:18;;;;;;;9.93;2.22;;;5.00;99.90;;;;;;4859234;29;20041;-90
2023/04/26 00:56:45;;;;;;;13.15;2.63;;;5.00;99.90;;;;;;4859804;29;20140;-90
2023/04/26 00:59:11;;;;;;;18.42;2.63;;;3.90;99.90;;;;;;4856488;29;20478;-89
2023/04/26 01:01:36;;;;;;;14.02;3.30;;;4.70;99.90;;;;;;4849122;29;20589;-89
2023/04/26 01:04:03;;;;;;;12.23;2.78;;;4.90;99.90;;;;;;4841204;29;20076;-90
2023/04/26 01:06:33;;;;;;;10.10;2.50;;;3.80;99.90;;;;;;4849676;29;20053;-88
2023/04/26 01:09:03;;;;;;;12.98;2.70;;;4.90;99.90;;;;;;4854941;29;20498;-88
2023/04/26 01:11:29;;;;;;;12.18;2.80;;;4.20;99.90;;;;;;4845484;29;20053;-89
2023/04/26 01:13:56;;;;;;;13.68;2.80;;;4.00;99.90;;;;;;4851647;29;20063;-90
2023/04/26 01:16:22;;;;;;;15.20;3.10;;;4.40;99.90;;;;;;4852327;29;20029;-90
2023/04/26 01:18:52;;;;;;;10.50;2.72;;;3.80;99.90;;;;;;4871130;29;20087;-89
2023/04/26 01:21:22;;;;;;;16.33;3.10;;;4.60;99.90;;;;;;4857710;29;20105;-89
2023/04/26 01:23:48;;;;;;;15.18;3.00;;;4.00;99.90;;;;;;4853893;29;20105;-90
2023/04/26 01:26:14;;;;;;;13.02;2.97;;;4.40;99.90;;;;;;4855683;29;20076;-90
2023/04/26 01:28:40;;;;;;;8.57;3.20;;;4.80;99.90;;;;;;4858250;29;20132;-90
2023/04/26 01:31:06;;;;;;;12.57;2.75;;;3.80;99.90;;;;;;4857693;29;20136;-89
2023/04/26 01:33:32;;;;;;;13.80;2.95;;;3.70;99.90;;;;;;4842868;29;20507;-89
2023/04/26 01:35:58;;;;;;;10.05;2.67;;;4.80;99.90;;;;;;4845664;29;20052;-90
2023/04/26 01:38:23;;;;;;;11.25;3.17;;;4.80;99.90;;;;;;4870808;29;20092;-90
2023/04/26 01:40:49;;;;;;;11.80;2.70;;;3.80;99.90;;;;;;4859074;29;20055;-90
2023/04/26 01:43:17;;;;;;;13.10;3.40;;;4.00;99.90;;;;;;4859387;29;20049;-90
2023/04/26 01:45:46;;;;;;;14.50;3.42;;;3.90;99.90;;;;;;4845195;29;20048;-90
2023/04/26 01:48:12;;;;;;;10.82;2.70;;;3.90;99.90;;;;;;4856061;29;20199;-89
2023/04/26 01:50:38;;;;;;;13.05;2.88;;;4.70;99.90;;;;;;4851458;29;20056;-89
2023/04/26 01:53:03;;;;;;;15.18;3.25;;;3.90;99.90;;;;;;4839402;29;20041;-89
2023/04/26 01:55:29;;;;;;;15.05;3.00;;;3.80;99.90;;;;;;4852343;29;20060;-90
2023/04/26 01:57:55;;;;;;;13.77;2.80;;;3.80;99.90;;;;;;4863968;29;20121;-89
2023/04/26 02:00:21;;;;;;;12.52;3.25;;;4.70;99.90;;;;;;4863499;29;20056;-89
2023/04/26 02:02:47;;;;;;;16.50;4.07;;;3.70;99.90;;;;;;4852367;29;20056;-89
2023/04/26 02:05:12;;;;;;;17.15;3.00;;;3.70;99.90;;;;;;4862687;29;20052;-90
2023/04/26 02:07:38;;;;;;;9.27;2.70;;;4.60;99.90;;;;;;4861759;29;20505;-90
2023/04/26 02:10:04;;;;;;;11.30;2.88;;;4.40;99.90;;;;;;4865034;29;20165;-89
2023/04/26 02:12:30;;;;;;;10.93;3.58;;;3.80;99.90;;;;;;4863387;29;20514;-90
2023/04/26 02:14:56;;;;;;;10.48;3.33;;;3.80;99.90;;;;;;4852601;29;20060;-90
2023/04/26 02:17:25;;;;;;;10.85;3.47;;;3.80;99.90;;;;;;4859150;29;20028;-89
2023/04/26 02:19:51;;;;;;;10.65;2.95;;;4.80;99.90;;;;;;4864046;29;20041;-90
2023/04/26 02:22:16;;;;;;;11.18;2.95;;;3.70;99.90;;;;;;4860529;29;20048;-90
2023/04/26 02:24:42;;;;;;;12.48;3.10;;;4.50;99.90;;;;;;4864347;29;20095;-90
2023/04/26 02:27:08;;;;;;;13.75;3.50;;;4.70;99.90;;;;;;4857972;29;20059;-90
2023/04/26 02:29:35;;;;;;;9.55;3.10;;;4.50;99.90;;;;;;4846061;29;20056;-90
2023/04/26 02:32:01;;;;;;;13.50;2.72;;;4.40;99.90;;;;;;4850595;29;20053;-90
2023/04/26 02:34:31;;;;;;;13.38;2.97;;;4.10;99.90;;;;;;4865340;29;20104;-90
2023/04/26 02:36:57;;;;;;;11.30;3.08;;;4.20;99.90;;;;;;4852778;29;20067;-91
2023/04/26 02:39:23;;;;;;;17.52;3.25;;;4.20;99.90;;;;;;4864243;29;20064;-90
2023/04/26 02:41:48;;;;;;;16.95;3.00;;;3.70;99.90;;;;;;4861236;29;20056;-90
2023/04/26 02:44:14;;;;;;;13.88;2.80;;;4.30;99.90;;;;;;4861984;29;20393;-90
2023/04/26 02:46:40;;;;;;;13.30;2.30;;;4.90;99.90;;;;;;4864357;29;20131;-90
2023/04/26 02:49:06;;;;;;;9.52;2.45;;;4.70;99.90;;;;;;4862832;29;20083;-90
2023/04/26 02:51:32;;;;;;;9.90;2.45;;;3.30;99.90;;;;;;4863811;29;20049;-90
2023/04/26 02:53:58;;;;;;;14.02;3.10;;;4.20;99.90;;;;;;4851161;29;20041;-91
2023/04/26 02:56:24;;;;;;;13.80;2.60;;;4.40;99.90;;;;;;4863958;29;20056;-90
2023/04/26 02:58:50;;;;;;;13.15;2.40;;;4.40;99.90;;;;;;4863958;29;20044;-90
2023/04/26 03:01:16;;;;;;;10.88;2.33;;;4.10;99.90;;;;;;4860473;29;20049;-90
2023/04/26 03:03:42;;;;;;;12.80;3.03;;;4.40;99.90;;;;;;4858091;29;20421;-90
2023/04/26 03:06:08;;;;;;;9.10;2.55;;;3.50;99.90;;;;;;4852325;29;20044;-90
2023/04/26 03:08:35;;;;;;;10.50;3.20;;;3.40;99.90;;;;;;4862868;29;20091;-90
2023/04/26 03:11:01;;;;;;;12.23;2.33;;;3.40;99.90;;;;;;4853043;29;20051;-90
2023/04/26 03:13:27;;;;;;;13.32;2.85;;;3.50;99.90;;;;;;4862307;29;20045;-90
2023/04/26 03:15:53;;;;;;;12.93;2.50;;;3.90;99.90;;;;;;4860801;29;20409;-90
2023/04/26 03:18:18;;;;;;;11.77;2.92;;;3.40;99.90;;;;;;4847124;29;20049;-90
2023/04/26 03:20:45;;;;;;;13.57;2.40;;;3.50;99.90;;;;;;4852867;29;20452;-90
2023/04/26 03:23:11;;;;;;;13.65;3.05;;;3.80;99.90;;;;;;4861528;29;20053;-90
2023/04/26 03:25:36;;;;;;;11.25;2.63;;;4.00;99.90;;;;;;4868158;29;20059;-90
2023/04/26 03:28:02;;;;;;;9.13;2.58;;;4.50;99.90;;;;;;4851061;29;20409;-90
2023/04/26 03:30:28;;;;;;;13.95;2.60;;;3.70;99.90;;;;;;4851889;29;20480;-91
2023/04/26 03:32:54;;;;;;;14.05;3.17;;;3.70;99.90;;;;;;4862194;29;20043;-91
2023/04/26 03:35:20;;;;;;;8.85;2.40;;;4.20;99.90;;;;;;4862186;29;20053;-90
2023/04/26 03:37:46;;;;;;;9.40;2.60;;;4.70;99.90;;;;;;4863301;29;20104;-91
2023/04/26 03:40:12;;;;;;;12.50;2.28;;;4.10;99.90;;;;;;4860363;29;20176;-90
2023/04/26 03:42:38;;;;;;;14.00;2.72;;;3.70;99.90;;;;;;4864358;29;20531;-91
2023/04/26 03:45:04;;;;;;;15.38;3.28;;;4.20;99.90;;;;;;4863656;29;20135;-91
2023/04/26 03:47:30;;;;;;;15.38;2.63;;;3.70;99.90;;;;;;4863753;29;20169;-93
2023/04/26 03:49:57;;;;;;;9.13;2.75;;;4.50;99.90;;;;;;4863790;29;20063;-92
2023/04/26 03:52:24;;;;;;;12.52;2.47;;;3.70;99.90;;;;;;4860975;29;20045;-90
2023/04/26 03:54:49;;;;;;;12.27;2.30;;;3.60;99.90;;;;;;4868768;29;20044;-92
2023/04/26 03:57:15;;;;;;;14.50;2.28;;;3.80;99.90;;;;;;4863385;29;20100;-91
2023/04/26 03:59:41;;;;;;;10.05;2.42;;;4.60;99.90;;;;;;4863575;29;20067;-91
2023/04/26 04:02:06;;;;;;;6.97;1.60;;;4.60;99.90;;;;;;4860832;29;20048;-91
2023/04/26 04:04:32;;;;;;;8.48;1.95;;;4.40;99.90;;;;;;4862854;29;20044;-91
2023/04/26 04:06:58;;;;;;;10.80;2.15;;;4.80;99.90;;;;;;4862738;29;20349;-91
2023/04/26 04:09:24;;;;;;;13.68;2.60;;;3.60;99.90;;;;;;4867428;29;20040;-91
2023/04/26 04:11:50;;;;;;;10.25;2.55;;;4.50;99.90;;;;;;4862218;29;20052;-91
2023/04/26 04:14:16;;;;;;;11.93;2.33;;;3.70;99.90;;;;;;4863052;29;20088;-91
2023/04/26 04:16:42;;;;;;;7.70;2.30;;;3.80;99.90;;;;;;4855715;29;20089;-91
2023/04/26 04:19:07;;;;;;;8.20;1.90;;;4.10;99.90;;;;;;4852138;29;20062;-90
2023/04/26 04:21:33;;;;;;;12.20;2.17;;;4.30;99.90;;;;;;4861080;29;20520;-91
2023/04/26 04:23:59;;;;;;;6.85;1.83;;;4.30;99.90;;;;;;4862641;29;20048;-91
2023/04/26 04:26:26;;;;;;;9.10;1.50;;;4.70;99.90;;;;;;4849960;29;20045;-91
2023/04/26 04:28:54;;;;;;;10.45;2.20;;;3.90;99.90;;;;;;4860278;29;20044;-91
2023/04/26 04:31:20;;;;;;;7.78;1.60;;;4.70;99.90;;;;;;4862666;29;20053;-90
2023/04/26 04:33:46;;;;;;;5.70;1.67;;;4.70;99.90;;;;;;4862536;29;20040;-91
2023/04/26 04:36:12;;;;;;;7.38;2.30;;;4.00;99.90;;;;;;4861229;29;20108;-90
2023/04/26 04:38:38;;;;;;;10.70;1.90;;;5.00;99.90;;;;;;4863250;29;20059;-91
2023/04/26 04:41:04;;;;;;;6.80;1.92;;;4.10;99.90;;;;;;4850117;29;20091;-90
2023/04/26 04:43:30;;;;;;;6.95;2.28;;;4.00;99.90;;;;;;4860275;29;20083;-91
2023/04/26 04:45:55;;;;;;;6.60;1.92;;;4.10;99.90;;;;;;4863605;29;20379;-90
2023/04/26 04:48:21;;;;;;;5.72;1.92;;;4.10;99.90;;;;;;4867013;29;20508;-90
2023/04/26 04:50:48;;;;;;;7.72;1.83;;;5.10;99.90;;;;;;4861400;29;20041;-91
2023/04/26 04:53:15;;;;;;;7.25;1.92;;;4.40;99.90;;;;;;4859559;29;20064;-91
2023/04/26 04:55:40;;;;;;;7.85;2.22;;;5.30;99.90;;;;;;4861071;29;20056;-91
2023/04/26 04:58:06;;;;;;;9.02;2.03;;;5.20;99.90;;;;;;4855482;29;20109;-90
2023/04/26 05:00:32;;;;;;;10.05;2.47;;;4.90;99.90;;;;;;4871498;29;20053;-91
2023/04/26 05:02:58;;;;;;;12.18;2.47;;;4.50;99.90;;;;;;4852242;29;20052;-91
2023/04/26 05:05:24;;;;;;;6.72;1.90;;;4.50;99.90;;;;;;4860387;29;20037;-90
2023/04/26 05:07:49;;;;;;;8.80;2.67;;;4.90;99.90;;;;;;4855118;29;20052;-91
2023/04/26 05:10:15;;;;;;;13.13;2.15;;;4.90;99.90;;;;;;4872887;29;20049;-91
2023/04/26 05:12:41;;;;;;;6.88;1.77;;;4.70;99.90;;;;;;4863145;29;20060;-91
2023/04/26 05:15:08;;;;;;;10.18;2.10;;;5.80;99.90;;;;;;4848831;29;20109;-90
2023/04/26 05:17:33;;;;;;;10.20;2.45;;;4.70;99.90;;;;;;4858432;29;20059;-90
2023/04/26 05:20:02;;;;;;;10.07;2.63;;;5.60;99.90;;;;;;4858668;29;20045;-90
2023/04/26 05:22:28;;;;;;;14.55;2.15;;;4.80;99.90;;;;;;4847372;29;20062;-90
2023/04/26 05:24:54;;;;;;;8.70;2.03;;;4.90;99.90;;;;;;4852029;29;20063;-89
2023/04/26 05:27:19;;;;;;;9.23;2.63;;;4.90;99.90;;;;;;4848133;29;20083;-90
2023/04/26 05:29:46;;;;;;;9.52;2.20;;;5.70;99.90;;;;;;4849418;29;20148;-90
2023/04/26 05:32:12;;;;;;;6.82;2.30;;;5.80;99.90;;;;;;4855490;29;20049;-90
2023/04/26 05:34:37;;;;;;;10.07;2.38;;;4.80;99.90;;;;;;4862878;29;20111;-90
2023/04/26 05:37:03;;;;;;;14.02;2.78;;;5.20;99.90;;;;;;4869991;29;20040;-90
2023/04/26 05:39:30;;;;;;;7.53;2.28;;;4.70;99.90;;;;;;4865031;29;20065;-90
2023/04/26 05:41:56;;;;;;;7.97;2.22;;;4.60;99.90;;;;;;4865527;29;20048;-89
2023/04/26 05:44:22;;;;;;;9.13;2.40;;;4.60;99.90;;;;;;4863552;29;20561;-89
2023/04/26 05:46:48;;;;;;;11.82;2.22;;;5.40;99.90;;;;;;4865470;29;20147;-90
2023/04/26 05:49:13;;;;;;;13.75;2.83;;;4.60;99.90;;;;;;4854673;29;20336;-89
2023/04/26 05:51:39;;;;;;;12.00;2.42;;;4.70;99.90;;;;;;4848064;29;20171;-89
2023/04/26 05:54:05;;;;;;;6.35;2.28;;;5.70;99.90;;;;;;4848525;29;20045;-90
2023/04/26 05:56:31;;;;;;;11.88;2.95;;;4.90;99.90;;;;;;4853241;29;20057;-90
2023/04/26 05:58:57;;;;;;;11.18;3.03;;;5.10;99.90;;;;;;4853277;29;20323;-89
2023/04/26 06:01:22;;;;;;;8.98;2.70;;;5.30;99.90;;;;;;4862493;29;20044;-89
2023/04/26 06:03:48;;;;;;;7.47;2.40;;;5.50;99.90;;;;;;4849386;29;20470;-90
2023/04/26 06:06:14;;;;;;;9.93;2.40;;;5.50;99.90;;;;;;4861316;29;20048;-89
2023/04/26 06:08:42;;;;;;;9.82;2.30;;;6.00;99.90;;;;;;4859999;29;20053;-89
2023/04/26 06:11:08;;;;;;;12.05;2.38;;;5.50;99.90;;;;;;4853363;29;20053;-90
2023/04/26 06:13:34;;;;;;;16.55;2.47;;;5.50;99.90;;;;;;4855109;29;20044;-89
2023/04/26 06:15:59;;;;;;;12.75;2.05;;;5.50;99.90;;;;;;4854930;29;20049;-90
2023/04/26 06:18:25;;;;;;;8.13;2.13;;;5.50;99.90;;;;;;4846012;29;20045;-89
2023/04/26 06:20:51;;;;;;;10.55;2.55;;;6.10;99.90;;;;;;4866860;29;20048;-91
2023/04/26 06:23:16;;;;;;;9.68;2.10;;;5.60;99.90;;;;;;4851608;29;20045;-91
2023/04/26 06:25:44;;;;;;;11.60;1.83;;;5.50;99.90;;;;;;4847210;29;20127;-89
2023/04/26 06:28:11;;;;;;;12.30;2.58;;;5.60;99.90;;;;;;4847466;29;20052;-90
2023/04/26 06:30:37;;;;;;;6.57;1.90;;;6.50;99.90;;;;;;4848048;29;20053;-89
2023/04/26 06:33:03;;;;;;;12.70;2.20;;;5.90;99.90;;;;;;4849473;29;20060;-90
2023/04/26 06:35:29;;;;;;;11.52;2.03;;;6.00;99.90;;;;;;4862622;29;20071;-91
2023/04/26 06:37:54;;;;;;;7.55;2.03;;;6.30;99.90;;;;;;4853336;29;20040;-90
2023/04/26 06:40:20;;;;;;;10.13;2.00;;;6.50;99.90;;;;;;4846279;29;20164;-91
2023/04/26 06:42:46;;;;;;;8.52;2.22;;;6.60;99.90;;;;;;4844446;29;20065;-89
2023/04/26 06:45:12;;;;;;;10.02;2.30;;;6.80;99.90;;;;;;4843712;29;20042;-89
2023/04/26 06:47:38;;;;;;;8.30;1.80;;;7.00;99.90;;;;;;4846101;29;20049;-89
2023/04/26 06:50:05;;;;;;;10.70;2.20;;;7.50;99.90;;;;;;4833918;29;20402;-89
2023/04/26 06:52:30;;;;;;;8.73;2.42;;;7.30;99.90;;;;;;4844551;29;20136;-89
2023/04/26 06:54:56;;;;;;;8.93;2.00;;;7.40;99.90;;;;;;4849837;29;20140;-89
2023/04/26 06:57:22;;;;;;;9.35;2.22;;;7.50;99.90;;;;;;4862701;29;20410;-90
2023/04/26 06:59:48;;;;;;;7.13;2.00;;;7.40;99.90;;;;;;4848510;29;20052;-90
2023/04/26 07:02:13;;;;;;;5.50;1.95;;;7.40;99.90;;;;;;4842560;29;20057;-91
2023/04/26 07:04:39;;;;;;;7.70;2.05;;;7.40;99.90;;;;;;4835716;29;20200;-91
2023/04/26 07:07:05;;;;;;;7.70;2.28;;;7.40;99.90;;;;;;4851553;29;20052;-91
2023/04/26 07:09:31;;;;;;;10.52;2.22;;;7.50;99.90;;;;;;4843238;29;20122;-92
2023/04/26 07:11:57;;;;;;;7.32;1.55;;;7.50;99.90;;;;;;4841166;29;20041;-88
2023/04/26 07:14:23;;;;;;;9.18;1.95;;;7.60;99.90;;;;;;4832532;29;20189;-88
2023/04/26 07:16:49;;;;;;;9.05;1.90;;;7.60;99.90;;;;;;4856598;29;20053;-87
2023/04/26 07:19:16;;;;;;;8.48;2.05;;;7.70;99.90;;;;;;4847338;29;20056;-89
2023/04/26 07:21:42;;;;;;;8.45;1.52;;;7.80;99.90;;;;;;4840458;29;20136;-90
2023/04/26 07:24:08;;;;;;;13.13;1.70;;;8.00;99.90;;;;;;4825997;29;20902;-90
2023/04/26 07:26:35;;;;;;;7.40;1.65;;;7.90;99.90;;;;;;4839006;29;20045;-88
2023/04/26 07:29:01;;;;;;;7.65;1.75;;;7.80;99.90;;;;;;4854728;29;20095;-87
2023/04/26 07:31:27;;;;;;;7.53;1.63;;;7.70;99.90;;;;;;4845885;29;20068;-87
2023/04/26 07:33:52;;;;;;;10.15;1.92;;;7.70;99.90;;;;;;4842773;29;20494;-92
2023/04/26 07:36:18;;;;;;;11.18;2.00;;;7.80;99.90;;;;;;4842045;29;20455;-93
2023/04/26 07:38:44;;;;;;;8.32;2.10;;;7.90;99.90;;;;;;4842581;29;20054;-88
2023/04/26 07:41:11;;;;;;;10.70;2.75;;;8.10;99.90;;;;;;4842157;29;20140;-87
2023/04/26 07:43:37;;;;;;;9.45;2.20;;;8.20;99.90;;;;;;4854987;29;20176;-87
2023/04/26 07:46:03;;;;;;;10.93;2.05;;;8.30;99.90;;;;;;4842250;29;20086;-88
2023/04/26 07:48:29;;;;;;;8.18;1.90;;;8.40;99.90;;;;;;4843336;29;20053;-87
2023/04/26 07:50:54;;;;;;;13.25;2.20;;;8.50;99.90;;;;;;4857933;29;20045;-88
2023/04/26 07:53:21;;;;;;;7.25;1.90;;;8.60;99.90;;;;;;4854719;29;20064;-88
2023/04/26 07:55:50;;;;;;;8.13;2.20;;;8.70;99.90;;;;;;4849934;29;20053;-88
2023/04/26 07:58:15;;;;;;;9.30;2.15;;;8.90;99.90;;;;;;4861139;29;20080;-87
2023/04/26 08:00:41;;;;;;;15.90;3.20;;;8.90;99.90;;;;;;4854067;29;20443;-88
2023/04/26 08:03:07;;;;;;;6.40;1.65;;;8.90;99.90;;;;;;4842624;29;20410;-87
2023/04/26 08:05:33;;;;;;;9.57;1.70;;;8.70;99.90;;;;;;4829948;29;20050;-88
2023/04/26 08:08:00;;;;;;;7.82;1.55;;;8.50;99.90;;;;;;4842827;29;20144;-88
2023/04/26 08:10:26;;;;;;;11.90;2.45;;;8.60;99.90;;;;;;4854417;29;20076;-88
2023/04/26 08:12:52;;;;;;;12.65;2.22;;;8.80;99.90;;;;;;4843043;29;20470;-87
2023/04/26 08:15:18;;;;;;;9.57;1.73;;;9.10;99.90;;;;;;4854841;29;20084;-88
2023/04/26 08:17:44;;;;;;;12.43;2.10;;;9.10;99.90;;;;;;4850832;29;20049;-88
2023/04/26 08:20:10;;;;;;;11.68;2.17;;;9.00;99.90;;;;;;4845935;29;20062;-88
2023/04/26 08:22:36;;;;;;;12.55;2.20;;;8.90;99.90;;;;;;4842317;29;20053;-88
2023/04/26 08:25:03;;;;;;;11.10;1.88;;;8.90;99.90;;;;;;4844974;29;20043;-87
2023/04/26 08:27:30;;;;;;;12.90;2.33;;;8.60;99.90;;;;;;4850391;29;20097;-88
2023/04/26 08:29:56;;;;;;;11.88;2.05;;;8.60;99.90;;;;;;4842534;29;20063;-88
2023/04/26 08:32:22;;;;;;;13.15;1.85;;;8.60;99.90;;;;;;4856970;29;20495;-86
2023/04/26 08:34:48;;;;;;;11.50;1.83;;;8.30;99.90;;;;;;4854161;29;20053;-86
2023/04/26 08:37:14;;;;;;;14.20;1.95;;;8.60;99.90;;;;;;4851907;29;20057;-88
2023/04/26 08:39:40;;;;;;;17.65;3.55;;;8.60;99.90;;;;;;4844324;29;20068;-88
2023/04/26 08:42:13;;;;;;;11.10;2.45;;;8.50;99.90;;;;;;4851263;29;20045;-87
2023/04/26 08:44:41;;;;;;;13.75;2.33;;;8.60;99.90;;;;;;4844446;29;20046;-88
2023/04/26 08:47:21;;;;;;;8.00;1.70;;;8.70;99.90;;;;;;4856067;29;20409;-87
2023/04/26 08:49:58;;;;;;;9.93;2.30;;;8.80;99.90;;;;;;4842223;29;20113;-87
2023/04/26 08:52:27;;;;;;;12.55;2.22;;;8.90;99.90;;;;;;4843162;29;20132;-88
2023/04/26 08:54:55;;;;;;;11.82;2.40;;;8.90;99.90;;;;;;4852250;29;20061;-87
2023/04/26 08:57:22;;;;;;;13.88;1.98;;;8.90;99.90;;;;;;4842078;29;20079;-87
2023/04/26 08:59:50;;;;;;;10.18;1.52;;;8.70;99.90;;;;;;4833440;29;20061;-86
2023/04/26 09:02:19;;;;;;;12.88;1.95;;;8.40;99.90;;;;;;4839133;29;20049;-86
2023/04/26 09:04:46;;;;;;;9.30;1.83;;;8.20;99.90;;;;;;4851644;29;20053;-87
2023/04/26 09:07:19;;;;;;;10.43;1.77;;;8.20;99.90;;;;;;4840524;29;20140;-87
2023/04/26 09:09:46;;;;;;;;;;;8.00;99.90;;;;;;4842005;29;20055;-87
2023/04/26 09:12:16;;;;;;;12.98;1.92;;;8.00;99.90;;;;;;4844812;29;19926;-86
2023/04/26 09:14:42;;;;;;;12.40;1.98;;;8.10;99.90;;;;;;4858859;29;20133;-87
2023/04/26 09:17:31;;;;;;;9.38;1.67;;;8.20;99.90;;;;;;4851736;29;20120;-87
2023/04/26 09:19:58;;;;;;;8.70;1.85;;;8.30;99.90;;;;;;4852271;29;20108;-87
2023/04/26 09:22:30;;;;;;;10.48;1.65;;;8.30;99.90;;;;;;4839231;29;20486;-87
2023/04/26 09:24:56;;;;;;;12.63;1.85;;;8.40;99.90;;;;;;4841652;29;20057;-87
2023/04/26 09:27:31;;;;;;;11.07;1.50;;;8.40;99.90;;;;;;4849021;29;20037;-87
2023/04/26 09:30:04;;;;;;;9.77;1.45;;;8.30;99.90;;;;;;4847244;29;20077;-86
2023/04/26 09:32:51;;;;;;;8.77;1.85;;;8.30;99.90;;;;;;4845527;29;20141;-88
2023/04/26 09:35:29;;;;;;;8.60;1.92;;;8.20;99.90;;;;;;4835588;29;20045;-87
2023/04/26 09:38:03;;;;;;;14.00;2.28;;;8.20;99.90;;;;;;4845702;29;20045;-87
2023/04/26 09:40:31;;;;;;;10.07;2.08;;;8.20;99.90;;;;;;4849736;29;20176;-87
2023/04/26 09:42:59;;;;;;;9.38;2.00;;;8.30;99.90;;;;;;4843778;29;20068;-88
2023/04/26 09:45:26;;;;;;;13.52;2.15;;;8.30;99.90;;;;;;4840103;29;20479;-88
2023/04/26 09:47:52;;;;;;;9.80;2.35;;;8.30;99.90;;;;;;4841404;29;20422;-87
2023/04/26 09:50:26;;;;;;;12.18;2.50;;;8.40;99.90;;;;;;4846347;29;20046;-87
2023/04/26 09:52:52;;;;;;;11.73;2.60;;;8.50;99.90;;;;;;4847675;29;20522;-88
2023/04/26 09:55:27;;;;;;;9.55;2.38;;;8.60;99.90;;;;;;4845574;29;20067;-87
2023/04/26 09:57:53;;;;;;;14.75;2.50;;;8.80;99.90;;;;;;4844409;29;20049;-88
2023/04/26 10:00:20;;;;;;;9.32;2.33;;;9.00;99.90;;;;;;4846428;29;20049;-86
2023/04/26 10:02:46;;;;;;;8.10;1.83;;;9.00;99.90;;;;;;4856225;29;20060;-88
2023/04/26 10:05:12;;;;;;;10.75;1.80;;;9.10;99.90;;;;;;4844120;29;20045;-88
2023/04/26 10:07:40;;;;;;;7.53;1.33;;;9.20;99.90;;;;;;4838353;29;20061;-86
2023/04/26 10:10:07;;;;;;;10.05;1.98;;;9.50;99.90;;;;;;4842551;29;20046;-87
2023/04/26 10:12:33;;;;;;;9.43;1.83;;;9.90;99.90;;;;;;4842837;29;20130;-89
2023/04/26 10:15:00;;;;;;;10.23;1.33;;;10.20;99.90;;;;;;4843937;29;20649;-90
2023/04/26 10:17:26;;;;;;;6.93;1.45;;;10.50;99.90;;;;;;4841358;29;20081;-88
2023/04/26 10:19:56;;;;;;;3.95;0.80;;;10.40;99.90;;;;;;4839838;29;20085;-88
2023/04/26 10:22:26;;;;;;;6.57;1.20;;;10.20;99.90;;;;;;4844594;29;20489;-87
2023/04/26 10:24:54;;;;;;;8.02;1.20;;;10.20;99.90;;;;;;4829296;29;20124;-87
2023/04/26 10:27:46;;;;;;;9.00;1.60;;;10.20;99.90;;;;;;4834831;29;20049;-87
2023/04/26 10:30:15;;;;;;;7.95;1.08;;;10.20;99.90;;;;;;4843268;29;20065;-88
2023/04/26 10:32:51;;;;;;;5.80;1.00;;;10.10;99.90;;;;;;4827671;29;20046;-88
2023/04/26 10:35:18;;;;;;;8.32;1.20;;;10.10;99.90;;;;;;4866077;29;20104;-89
2023/04/26 10:37:59;;;;;;;7.88;1.40;;;10.10;99.90;;;;;;4843760;29;20131;-87
2023/04/26 10:40:28;;;;;;;8.40;1.75;;;10.10;99.90;;;;;;4842765;29;20564;-86
2023/04/26 10:43:10;;;;;;;10.77;1.63;;;10.30;99.90;;;;;;4843940;29;20041;-89
2023/04/26 10:45:38;;;;;;;8.23;1.42;;;10.70;99.90;;;;;;4844516;29;20132;-89
2023/04/26 10:48:16;;;;;;;6.35;1.17;;;10.50;99.90;;;;;;4856495;29;20048;-89
2023/04/26 10:51:00;;;;;;;9.40;1.48;;;10.50;99.90;;;;;;4848134;29;20073;-88
2023/04/26 10:53:27;;;;;;;12.07;1.33;;;10.20;99.90;;;;;;4843399;29;20513;-91
2023/04/26 10:55:53;;;;;;;6.47;1.55;;;9.80;99.90;;;;;;4836788;29;20432;-91
2023/04/26 10:58:28;;;;;;;11.32;1.85;;;9.30;99.90;;;;;;4844796;29;20068;-90
2023/04/26 11:01:09;;;;;;;13.05;1.77;;;9.00;99.90;;;;;;4855307;29;20124;-89
2023/04/26 11:03:35;;;;;;;10.85;1.90;;;8.70;99.90;;;;;;4856950;29;20088;-88
2023/04/26 11:06:06;;;;;;;11.73;1.77;;;8.50;99.90;;;;;;4843734;29;20045;-89
2023/04/26 11:08:33;;;;;;;12.00;1.58;;;8.40;99.90;;;;;;4847556;29;20135;-89
2023/04/26 11:11:00;;;;;;;6.68;1.50;;;8.40;99.90;;;;;;4846565;29;20052;-90
2023/04/26 11:13:29;;;;;;;9.55;1.70;;;8.30;99.90;;;;;;4844685;29;20096;-91
2023/04/26 11:16:02;;;;;;;6.25;1.38;;;8.30;99.90;;;;;;4846353;29;20100;-90
2023/04/26 11:18:29;;;;;;;10.40;1.40;;;8.40;99.90;;;;;;4849111;29;20065;-90
2023/04/26 11:20:56;;;;;;;13.55;1.85;;;8.50;99.90;;;;;;4843089;29;20052;-91
2023/04/26 11:23:23;;;;;;;8.30;1.25;;;8.50;99.90;;;;;;4845646;29;20096;-90
2023/04/26 11:25:48;;;;;;;6.85;1.35;;;8.50;99.90;;;;;;4843949;29;20109;-89
2023/04/26 11:28:15;;;;;;;10.48;1.30;;;8.70;99.90;;;;;;4855846;29;20052;-89
2023/04/26 11:30:42;;;;;;;7.63;1.20;;;8.80;99.90;;;;;;4843636;29;20049;-89
2023/04/26 11:33:17;;;;;;;8.73;1.45;;;8.90;99.90;;;;;;4856304;29;20049;-89
2023/04/26 11:35:45;;;;;;;7.85;1.20;;;9.20;99.90;;;;;;4852256;29;20140;-89
2023/04/26 11:38:11;;;;;;;6.15;1.15;;;9.40;99.90;;;;;;4859751;29;20053;-88
2023/04/26 11:40:36;;;;;;;64.53;9.07;;;9.60;99.90;;;;;;4836838;29;20115;-89
2023/04/26 11:43:04;;;;;;;7.30;1.60;;;10.00;99.90;;;;;;4868465;29;20509;-90
2023/04/26 11:45:32;;;;;;;6.25;1.40;;;10.30;99.90;;;;;;4838054;29;20501;-89
2023/04/26 11:48:00;;;;;;;5.72;1.17;;;10.40;99.90;;;;;;4850542;29;20037;-90
2023/04/26 11:50:26;;;;;;;9.00;1.38;;;10.40;99.90;;;;;;4854330;29;20049;-88
2023/04/26 11:52:55;;;;;;;7.28;1.20;;;10.40;99.90;;;;;;4846817;29;20036;-90
2023/04/26 11:55:27;;;;;;;6.68;1.27;;;10.50;99.90;;;;;;4856182;29;20048;-90
2023/04/26 11:57:53;;;;;;;5.20;1.17;;;10.30;99.90;;;;;;4859365;29;20071;-89
2023/04/26 12:00:20;;;;;;;8.27;1.55;;;10.20;99.90;;;;;;4846266;29;20494;-90
2023/04/26 12:02:46;;;;;;;10.05;1.30;;;10.10;99.90;;;;;;4857538;29;20120;-88
2023/04/26 12:05:29;;;;;;;11.52;1.30;;;10.20;99.90;;;;;;4857030;29;20059;-88
2023/04/26 12:07:57;;;;;;;5.50;1.00;;;10.00;99.90;;;;;;4836528;29;20048;-89
2023/04/26 12:10:31;;;;;;;7.55;1.40;;;9.90;99.90;;;;;;4845643;29;20108;-89
2023/04/26 12:12:58;;;;;;;9.02;1.63;;;9.80;99.90;;;;;;4846438;29;20052;-89
2023/04/26 12:15:28;;;;;;;10.15;1.23;;;9.70;99.90;;;;;;4848533;29;20073;-89
2023/04/26 12:17:59;;;;;;;16.15;2.00;;;9.70;99.90;;;;;;4854787;29;20041;-90
2023/04/26 12:20:30;;;;;;;12.10;1.67;;;9.60;99.90;;;;;;4841421;29;20041;-90
2023/04/26 12:23:02;;;;;;;7.95;1.33;;;9.60;99.90;;;;;;4838825;29;20088;-90
2023/04/26 12:25:28;;;;;;;9.38;1.45;;;9.50;99.90;;;;;;4858002;29;20333;-89
2023/04/26 12:27:54;;;;;;;7.05;1.30;;;9.40;99.90;;;;;;4863568;29;20056;-89
2023/04/26 12:30:20;;;;;;;10.07;1.58;;;9.30;99.90;;;;;;4859975;29;20097;-90
2023/04/26 12:32:46;;;;;;;6.38;1.42;;;9.30;99.90;;;;;;4852188;29;20049;-90
2023/04/26 12:35:12;;;;;;;9.20;1.58;;;9.30;99.90;;;;;;4844748;29;20112;-90
2023/04/26 12:37:37;;;;;;;8.05;1.98;;;9.20;99.90;;;;;;4845679;29;20064;-90
2023/04/26 12:40:05;;;;;;;6.07;1.17;;;9.30;99.90;;;;;;4845793;29;20067;-90
2023/04/26 12:42:31;;;;;;;8.75;1.67;;;9.40;99.90;;;;;;4845667;29;20132;-90
2023/04/26 12:44:58;;;;;;;8.07;1.48;;;9.60;99.90;;;;;;4845434;29;20045;-90
2023/04/26 12:47:23;;;;;;;7.40;1.33;;;9.70;99.90;;;;;;4844804;29;20053;-91
2023/04/26 12:49:49;;;;;;;5.88;0.98;;;9.70;99.90;;;;;;4858329;29;20055;-90